الصفحة الرئيسية
METAR-TAF:

METAR-TAF

مطار :

Goodland Municipal Airport (Renner Field)

غودلاند, كانساس, الولايات المتحدة

دائرة عرض: 39-22-03N, خط طول: 101-41-35W, ارتفاع: 1114 متر

مراقبة الطقس الحالي

تاريخ ووقت الإصدار 28 دقيقة قبل الساعة 21:53UTC
ريح 18 عقدة من الجنوب
درجة الحرارة 27°درجة مئوية
الرطوبة 28%
ضغط 1018 hPa
الرؤية: 16.1 كم
سماء صافية

METAR: KGLD 222153Z AUTO 18018KT 10SM CLR 27/07 A3006 RMK AO2 PK WND 17027/2123 SLP148 T02720072

زمن: 16:21 (22:21 UTC)

توقعات

تاريخ ووقت الإصدار 5ساعات و 1 دقيقة قبل الساعة 17:20UTC
التوقعات صالحة من22 الساعة 18 UTC إلى 23 الساعة 18 UTC
ريح 20 عقدة من الجنوب تتزايد حتى 27 عقدة
الرؤية: 10 كم
سماء صافية
من 23 الساعة 0000 UTC
ريح 12 عقدة من الجنوب تتزايد حتى 17 عقدة
الرؤية: 10 كم
سماء صافية
من 23 الساعة 0100 UTC
ريح 10 عقدة من الجنوب
الرؤية: 10 كم
سماء صافية
من 23 الساعة 1000 UTC
ريح 10 عقدة من الجنوب/الجنوب الغربي
الرؤية: 10 كم
سماء صافية

TAF: KGLD 221720Z 2218/2318 18020G27KT P6SM SKC FM230000 17012G17KT P6SM SKC FM230100 17010KT P6SM SKC FM231000 20010KT P6SM SKC

أرصاد الطقس والتوقعات من أكثر من 4000 مطار (تقارير الطقس للمطار METAR والتنبؤ بالطقس بالمطارTAF).

المحطات المتاحة هي النقط الصفراء والحمراء على الخريطة.

حرك المؤشر فوق النقطة لمعرفة اسم المحطة.

ثم انقر لمعرفة أرصاد وتوقعات الطقس.

لتغيير الخارطة: اضغط على الأزرار الخضراء مع رمز الصليب الأسود للتكبير. على الزر الأخضر مع شرطة للتصغير، أو على الأسهم الخضراء للخرائط المجاورة.


METAR-TAF: